Time;durP1;ratioP1;P1;durP2;ratioP2;P2;SDS_P1;SDS_P2;PMS_P1;PMS_P2;Temp;Humidity;BMP_temperature;BMP_pressure;BME280_temperature;BME280_humidity;BME280_pressure;Samples;Min_cycle;Max_cycle;Signal;HPM_P1;HPM_P2
2022/05/29 00:02:22;;;;;;;8.23;3.60;;;16.90;99.90;;;;;;5142233;27;20194;-92
2022/05/29 00:04:48;;;;;;;4.20;3.53;;;16.90;99.90;;;;;;5150462;27;20429;-91
2022/05/29 00:07:16;;;;;;;4.30;3.40;;;16.90;99.90;;;;;;5146240;27;20234;-90
2022/05/29 00:09:47;;;;;;;4.70;3.77;;;16.90;99.90;;;;;;5150027;27;20234;-91
2022/05/29 00:12:13;;;;;;;4.90;4.40;;;16.90;99.90;;;;;;5124405;27;20497;-91
2022/05/29 00:14:42;;;;;;;4.57;3.90;;;16.90;99.90;;;;;;5121349;27;20399;-90
2022/05/29 00:17:08;;;;;;;4.07;3.60;;;16.90;99.90;;;;;;5132876;27;20471;-90
2022/05/29 00:19:34;;;;;;;4.40;3.60;;;16.80;99.90;;;;;;5140614;27;20975;-92
2022/05/29 00:22:01;;;;;;;5.93;4.30;;;16.90;99.90;;;;;;5120462;27;20466;-92
2022/05/29 00:24:27;;;;;;;5.80;3.50;;;16.80;99.90;;;;;;5120923;27;20447;-90
2022/05/29 00:26:54;;;;;;;4.63;4.23;;;16.80;99.90;;;;;;5120586;27;20947;-91
2022/05/29 00:29:21;;;;;;;3.60;3.30;;;16.80;99.90;;;;;;5121085;27;20414;-89
2022/05/29 00:31:46;;;;;;;4.00;3.33;;;16.80;99.90;;;;;;5121167;27;20465;-91
2022/05/29 00:34:12;;;;;;;3.83;3.40;;;16.80;99.90;;;;;;5121182;27;20415;-90
2022/05/29 00:36:40;;;;;;;6.27;3.77;;;16.80;99.90;;;;;;5121702;27;20198;-93
2022/05/29 00:39:07;;;;;;;5.10;3.80;;;16.80;99.90;;;;;;5122959;27;20186;-90
2022/05/29 00:41:35;;;;;;;5.30;4.10;;;16.80;99.90;;;;;;5121298;27;20562;-89
2022/05/29 00:44:16;;;;;;;5.47;4.80;;;16.80;99.90;;;;;;5121595;27;20988;-90
2022/05/29 00:47:23;;;;;;;4.53;3.93;;;16.80;99.90;;;;;;5140673;27;20423;-91
2022/05/29 00:49:50;;;;;;;7.47;4.27;;;16.90;99.90;;;;;;5109524;27;20436;-93
2022/05/29 00:52:25;;;;;;;4.67;3.90;;;16.80;99.90;;;;;;5121675;27;20489;-93
2022/05/29 00:55:21;;;;;;;5.27;3.97;;;16.80;99.90;;;;;;5122239;27;20499;-93
2022/05/29 00:58:00;;;;;;;6.20;4.60;;;16.90;99.90;;;;;;5122444;27;20484;-90
2022/05/29 01:00:28;;;;;;;4.03;3.63;;;16.80;99.90;;;;;;5140708;27;20411;-92
2022/05/29 01:02:58;;;;;;;3.07;2.80;;;16.80;99.90;;;;;;5139990;27;20435;-90
2022/05/29 01:05:26;;;;;;;4.03;3.50;;;16.80;99.90;;;;;;5122983;27;20786;-93
2022/05/29 01:07:56;;;;;;;4.67;4.00;;;16.80;99.90;;;;;;5123077;27;20443;-90
2022/05/29 01:10:32;;;;;;;4.10;3.67;;;16.80;99.90;;;;;;5122491;27;20395;-90
2022/05/29 01:13:17;;;;;;;4.97;4.40;;;16.90;99.90;;;;;;5122467;27;20462;-93
2022/05/29 01:16:02;;;;;;;4.53;4.07;;;16.90;99.90;;;;;;5121897;27;20411;-90
2022/05/29 01:19:03;;;;;;;5.97;4.40;;;16.90;99.90;;;;;;5131215;27;20573;-91
2022/05/29 01:21:58;;;;;;;3.97;3.63;;;16.90;99.90;;;;;;5123641;27;20437;-91
2022/05/29 01:24:45;;;;;;;4.20;3.80;;;16.90;99.90;;;;;;5120493;27;20419;-90
2022/05/29 01:27:35;;;;;;;12.50;5.00;;;16.90;99.90;;;;;;5120476;27;20466;-90
2022/05/29 01:30:14;;;;;;;6.97;3.90;;;16.90;99.90;;;;;;5119920;27;20416;-90
2022/05/29 01:32:59;;;;;;;5.00;3.57;;;16.90;99.90;;;;;;5120335;27;20489;-90
2022/05/29 01:35:32;;;;;;;5.00;4.17;;;16.90;99.90;;;;;;5122584;27;20422;-90
2022/05/29 01:38:15;;;;;;;4.80;4.23;;;16.90;99.90;;;;;;5122165;27;20442;-93
2022/05/29 01:40:54;;;;;;;3.80;3.37;;;16.90;99.90;;;;;;5139500;27;20396;-93
2022/05/29 01:43:45;;;;;;;3.87;3.43;;;16.80;99.90;;;;;;5121201;27;20955;-93
2022/05/29 01:46:18;;;;;;;7.50;4.90;;;16.90;99.90;;;;;;5141086;27;20455;-92
2022/05/29 01:49:18;;;;;;;7.60;4.70;;;16.90;99.90;;;;;;5140378;27;20949;-92
2022/05/29 01:52:12;;;;;;;6.10;4.00;;;16.80;99.90;;;;;;5120536;27;20609;-91
2022/05/29 01:54:43;;;;;;;5.67;4.10;;;16.80;99.90;;;;;;5096574;27;20404;-90
2022/05/29 01:57:32;;;;;;;6.80;5.10;;;16.80;99.90;;;;;;5146825;27;20443;-90
2022/05/29 02:00:19;;;;;;;10.27;5.27;;;16.80;99.90;;;;;;5119930;27;20859;-90
2022/05/29 02:02:56;;;;;;;5.70;4.80;;;16.80;99.90;;;;;;5121071;27;20459;-91
2022/05/29 02:05:27;;;;;;;6.40;3.70;;;16.80;99.90;;;;;;5137594;27;20454;-92
2022/05/29 02:08:01;;;;;;;5.30;4.27;;;16.80;99.90;;;;;;5138530;27;20939;-92
2022/05/29 02:10:47;;;;;;;4.60;3.70;;;16.80;99.90;;;;;;5119065;27;20419;-90
2022/05/29 02:13:34;;;;;;;4.60;3.97;;;16.70;99.90;;;;;;5102510;28;20451;-90
2022/05/29 02:16:20;;;;;;;4.47;3.90;;;16.70;99.90;;;;;;5119675;27;20504;-92
2022/05/29 02:19:01;;;;;;;3.90;3.50;;;16.70;99.90;;;;;;5119366;27;20939;-92
2022/05/29 02:21:38;;;;;;;4.60;3.63;;;16.70;99.90;;;;;;5119728;27;20441;-92
2022/05/29 02:24:09;;;;;;;5.70;4.20;;;16.70;99.90;;;;;;5138395;27;20418;-92
2022/05/29 02:26:43;;;;;;;6.70;4.17;;;16.70;99.90;;;;;;5138894;27;20435;-89
2022/05/29 02:29:11;;;;;;;5.40;4.63;;;16.70;99.90;;;;;;5138111;27;20395;-93
2022/05/29 02:31:41;;;;;;;6.00;4.67;;;16.70;99.90;;;;;;5118963;27;20474;-90
2022/05/29 02:34:15;;;;;;;4.23;3.80;;;16.60;99.90;;;;;;5120398;27;20410;-90
2022/05/29 02:36:51;;;;;;;7.17;4.47;;;16.60;99.90;;;;;;5120796;27;20431;-92
2022/05/29 02:39:29;;;;;;;5.00;4.17;;;16.60;99.90;;;;;;5138569;27;20456;-92
2022/05/29 02:42:14;;;;;;;6.47;4.70;;;16.60;99.90;;;;;;5119876;27;20450;-90
2022/05/29 02:44:50;;;;;;;5.90;4.00;;;16.60;99.90;;;;;;5119650;27;20416;-92
2022/05/29 02:47:43;;;;;;;6.60;4.10;;;16.60;99.90;;;;;;5121029;27;20989;-90
2022/05/29 02:50:21;;;;;;;6.17;4.60;;;16.60;99.90;;;;;;5095736;27;20904;-92
2022/05/29 02:52:51;;;;;;;5.33;4.20;;;16.60;99.90;;;;;;5120090;27;20814;-90
2022/05/29 02:55:24;;;;;;;4.47;3.43;;;16.60;99.90;;;;;;5120512;27;20423;-93
2022/05/29 02:57:55;;;;;;;5.70;4.30;;;16.50;99.90;;;;;;5120852;27;20508;-92
2022/05/29 03:00:21;;;;;;;8.47;4.40;;;16.50;99.90;;;;;;5138332;27;20395;-90
2022/05/29 03:03:11;;;;;;;6.20;4.63;;;16.50;99.90;;;;;;5121082;27;20447;-92
2022/05/29 03:05:50;;;;;;;4.53;4.03;;;16.50;99.90;;;;;;5132327;27;20416;-92
2022/05/29 03:08:22;;;;;;;5.93;5.33;;;16.50;99.90;;;;;;5110018;27;20431;-93
2022/05/29 03:10:58;;;;;;;3.93;3.63;;;16.50;99.90;;;;;;5135935;27;20456;-90
2022/05/29 03:13:47;;;;;;;3.60;3.20;;;16.50;99.90;;;;;;5136774;27;20474;-92
2022/05/29 03:16:30;;;;;;;5.90;4.20;;;16.50;99.90;;;;;;5101363;27;20464;-92
2022/05/29 03:19:04;;;;;;;6.10;4.47;;;16.50;99.90;;;;;;5137910;27;20422;-92
2022/05/29 03:21:30;;;;;;;4.00;3.60;;;16.50;99.90;;;;;;5118248;28;20459;-92
2022/05/29 03:24:15;;;;;;;9.83;4.60;;;16.50;99.90;;;;;;5118865;28;20423;-90
2022/05/29 03:26:57;;;;;;;5.00;4.37;;;16.50;99.90;;;;;;5118092;27;20210;-92
2022/05/29 03:29:56;;;;;;;5.97;3.80;;;16.50;99.90;;;;;;5139085;28;20473;-92
2022/05/29 03:32:23;;;;;;;4.07;3.50;;;16.50;99.90;;;;;;5138708;28;20474;-92
2022/05/29 03:34:49;;;;;;;4.30;3.90;;;16.50;99.90;;;;;;5137458;28;20490;-90
2022/05/29 03:37:15;;;;;;;5.27;3.77;;;16.50;99.90;;;;;;5119835;28;20543;-92
2022/05/29 03:39:40;;;;;;;5.57;4.53;;;16.50;99.90;;;;;;5139267;28;20174;-91
2022/05/29 03:42:07;;;;;;;4.60;3.90;;;16.50;99.90;;;;;;5138170;28;20506;-92
2022/05/29 03:44:32;;;;;;;4.93;4.03;;;16.50;99.90;;;;;;5120040;28;20644;-91
2022/05/29 03:46:58;;;;;;;5.10;3.60;;;16.50;99.90;;;;;;5137339;28;20427;-92
2022/05/29 03:49:24;;;;;;;4.17;3.57;;;16.50;99.90;;;;;;5120864;28;20171;-90
2022/05/29 03:51:50;;;;;;;4.10;3.03;;;16.50;99.90;;;;;;5139653;28;20219;-92
2022/05/29 03:54:16;;;;;;;4.10;2.80;;;16.50;99.90;;;;;;5148593;28;20407;-91
2022/05/29 03:56:43;;;;;;;7.20;3.30;;;16.60;99.90;;;;;;5136107;28;20974;-93
2022/05/29 03:59:09;;;;;;;3.73;3.43;;;16.60;99.90;;;;;;5117783;28;20779;-90
2022/05/29 04:01:35;;;;;;;4.80;2.77;;;16.60;99.90;;;;;;5116939;28;20439;-92
2022/05/29 04:04:01;;;;;;;4.43;3.00;;;16.60;99.90;;;;;;5117055;28;20954;-92
2022/05/29 04:06:28;;;;;;;4.40;3.50;;;16.70;99.90;;;;;;5116999;28;20509;-92
2022/05/29 04:14:26;;;;;;;2.77;2.57;;;16.80;99.90;;;;;;5136230;28;20405;-90
2022/05/29 04:16:52;;;;;;;5.70;3.30;;;17.00;99.90;;;;;;5135402;28;20454;-93
2022/05/29 04:19:18;;;;;;;2.63;2.43;;;17.00;99.90;;;;;;5117167;28;20974;-92
2022/05/29 04:21:45;;;;;;;3.50;2.77;;;17.10;99.90;;;;;;5135679;28;20424;-90
2022/05/29 04:24:11;;;;;;;3.00;2.23;;;17.00;99.90;;;;;;5135405;28;20780;-90
2022/05/29 04:26:37;;;;;;;5.10;2.53;;;17.00;99.90;;;;;;5117270;28;20519;-90
2022/05/29 04:29:05;;;;;;;3.70;2.40;;;17.00;99.90;;;;;;5135243;28;20415;-92
2022/05/29 04:31:32;;;;;;;4.67;2.93;;;17.10;99.90;;;;;;5135967;28;20603;-92
2022/05/29 04:33:58;;;;;;;2.57;1.90;;;17.10;99.90;;;;;;5118166;28;20419;-90
2022/05/29 04:36:24;;;;;;;2.77;1.70;;;17.20;99.90;;;;;;5117483;28;20935;-92
2022/05/29 04:38:51;;;;;;;1.60;1.47;;;17.20;99.90;;;;;;5138732;27;20171;-90
2022/05/29 04:41:19;;;;;;;1.60;1.50;;;17.20;99.90;;;;;;5121421;27;20444;-92
2022/05/29 04:43:45;;;;;;;1.70;1.60;;;17.20;99.90;;;;;;5139572;27;20411;-90
2022/05/29 04:46:11;;;;;;;2.20;1.80;;;17.20;99.90;;;;;;5121824;27;20460;-90
2022/05/29 04:48:37;;;;;;;1.70;1.27;;;17.20;99.90;;;;;;5121479;27;20558;-90
2022/05/29 04:51:06;;;;;;;1.83;1.73;;;17.20;99.90;;;;;;5121939;27;20467;-90
2022/05/29 04:53:31;;;;;;;2.60;1.67;;;17.20;99.90;;;;;;5140323;27;20191;-93
2022/05/29 04:55:59;;;;;;;2.50;1.80;;;17.20;99.90;;;;;;5121759;27;20428;-90
2022/05/29 04:58:27;;;;;;;4.43;1.60;;;17.20;99.90;;;;;;5121457;27;20439;-90
2022/05/29 05:00:58;;;;;;;2.40;1.73;;;17.20;99.90;;;;;;5139869;27;20411;-90
2022/05/29 05:03:24;;;;;;;1.80;1.23;;;17.20;99.90;;;;;;5123887;27;20443;-91
2022/05/29 05:05:49;;;;;;;1.20;1.10;;;17.20;99.90;;;;;;5128943;27;20430;-90
2022/05/29 05:08:15;;;;;;;1.53;1.33;;;17.20;99.90;;;;;;5140996;27;20435;-90
2022/05/29 05:10:42;;;;;;;2.00;1.70;;;17.30;99.90;;;;;;5139097;27;20258;-90
2022/05/29 05:13:08;;;;;;;1.33;1.23;;;17.30;99.90;;;;;;5120621;27;20240;-91
2022/05/29 05:15:35;;;;;;;1.63;1.37;;;17.40;99.90;;;;;;5120903;27;20475;-91
2022/05/29 05:18:01;;;;;;;2.73;1.53;;;17.50;99.90;;;;;;5139216;27;20469;-90
2022/05/29 05:20:28;;;;;;;2.63;1.90;;;17.50;99.90;;;;;;5121062;27;20433;-93
2022/05/29 05:22:54;;;;;;;2.03;1.37;;;17.50;99.90;;;;;;5139292;27;20422;-91
2022/05/29 05:25:20;;;;;;;1.80;1.57;;;17.50;99.90;;;;;;5120519;27;20416;-89
2022/05/29 05:27:46;;;;;;;2.80;1.20;;;17.50;99.90;;;;;;5120595;27;20336;-90
2022/05/29 05:30:12;;;;;;;1.87;1.70;;;17.50;99.90;;;;;;5120537;27;20935;-91
2022/05/29 05:32:38;;;;;;;1.40;1.30;;;17.50;99.90;;;;;;5121887;27;20548;-91
2022/05/29 05:35:07;;;;;;;1.17;1.07;;;17.40;99.90;;;;;;5120992;27;20416;-90
2022/05/29 05:37:35;;;;;;;1.37;1.27;;;17.40;99.90;;;;;;5120805;27;20199;-90
2022/05/29 05:40:03;;;;;;;2.80;1.30;;;17.30;99.90;;;;;;5139941;27;20972;-92
2022/05/29 05:42:28;;;;;;;1.43;1.33;;;17.30;99.90;;;;;;5122639;27;20449;-90
2022/05/29 05:44:55;;;;;;;1.47;1.20;;;17.20;99.90;;;;;;5141152;27;20395;-93
2022/05/29 05:47:22;;;;;;;2.97;1.47;;;17.20;99.90;;;;;;5121621;27;20202;-93
2022/05/29 05:49:49;;;;;;;1.03;1.03;;;17.10;99.90;;;;;;5139675;27;20804;-91
2022/05/29 05:52:16;;;;;;;1.73;1.40;;;17.10;99.90;;;;;;5142905;27;20998;-93
2022/05/29 05:54:42;;;;;;;1.50;1.10;;;17.00;99.90;;;;;;5133981;27;20415;-90
2022/05/29 05:57:08;;;;;;;1.53;1.20;;;17.00;99.90;;;;;;5149597;27;20549;-92
2022/05/29 05:59:38;;;;;;;1.97;1.47;;;17.00;99.90;;;;;;5123143;27;20438;-90
2022/05/29 06:02:05;;;;;;;1.30;1.20;;;16.90;99.90;;;;;;5119966;27;20224;-93
2022/05/29 06:04:31;;;;;;;1.13;1.10;;;16.90;99.90;;;;;;5119744;27;20907;-93
2022/05/29 06:06:57;;;;;;;1.30;1.20;;;16.80;99.90;;;;;;5119771;27;20546;-93
2022/05/29 06:09:23;;;;;;;1.40;1.30;;;16.80;99.90;;;;;;5119661;27;20411;-91
2022/05/29 06:11:49;;;;;;;1.03;0.93;;;16.70;99.90;;;;;;5137534;27;20215;-92
2022/05/29 06:14:15;;;;;;;1.90;1.03;;;16.60;99.90;;;;;;5119730;27;20457;-93
2022/05/29 06:16:40;;;;;;;5.33;1.10;;;16.50;99.90;;;;;;5137294;27;20191;-93
2022/05/29 06:19:06;;;;;;;1.47;1.00;;;16.50;99.90;;;;;;5120469;27;20782;-91
2022/05/29 06:21:35;;;;;;;1.10;0.83;;;16.40;99.90;;;;;;5120548;27;20175;-92
2022/05/29 06:24:01;;;;;;;0.90;0.90;;;16.40;99.90;;;;;;5139147;27;20186;-90
2022/05/29 06:26:27;;;;;;;1.10;0.90;;;16.40;99.90;;;;;;5119959;27;20795;-92
2022/05/29 06:28:53;;;;;;;1.10;1.00;;;16.30;99.90;;;;;;5120047;27;20521;-91
2022/05/29 06:31:19;;;;;;;0.90;0.60;;;16.30;99.90;;;;;;5137576;27;20305;-90
2022/05/29 06:33:44;;;;;;;0.93;0.93;;;16.30;99.90;;;;;;5138550;27;20171;-93
2022/05/29 06:36:10;;;;;;;1.27;1.07;;;16.30;99.90;;;;;;5120398;27;20186;-92
2022/05/29 06:38:36;;;;;;;1.67;1.20;;;16.30;99.90;;;;;;5119069;27;20191;-91
2022/05/29 06:41:09;;;;;;;3.37;1.47;;;16.30;99.90;;;;;;5119509;27;20179;-91
2022/05/29 06:43:38;;;;;;;1.57;1.47;;;16.30;99.90;;;;;;5119816;27;20450;-90
2022/05/29 06:46:05;;;;;;;1.00;0.83;;;16.30;99.90;;;;;;5119547;27;20457;-92
2022/05/29 06:48:33;;;;;;;1.30;0.80;;;16.30;99.90;;;;;;5137837;27;20525;-92
2022/05/29 06:51:04;;;;;;;1.10;1.00;;;16.30;99.90;;;;;;5118015;27;20408;-89
2022/05/29 06:53:30;;;;;;;2.50;0.87;;;16.30;99.90;;;;;;5138377;27;20431;-92
2022/05/29 06:55:56;;;;;;;1.20;1.10;;;16.20;99.90;;;;;;5120337;27;20947;-89
2022/05/29 06:58:23;;;;;;;1.87;1.40;;;16.20;99.90;;;;;;5120327;27;20450;-93
2022/05/29 07:09:04;;;;;;;3.30;1.20;;;16.20;99.90;;;;;;5135496;27;20414;-90
2022/05/29 07:11:34;;;;;;;2.43;1.00;;;16.20;99.90;;;;;;5135270;27;20466;-90
2022/05/29 07:14:02;;;;;;;1.70;1.10;;;16.20;99.90;;;;;;5136375;27;20498;-88
2022/05/29 07:16:28;;;;;;;2.57;1.03;;;16.20;99.90;;;;;;5117023;28;20415;-89
2022/05/29 07:18:54;;;;;;;1.20;0.70;;;16.20;99.90;;;;;;5117838;27;20488;-90
2022/05/29 07:21:20;;;;;;;0.67;0.67;;;16.20;99.90;;;;;;5118212;27;20406;-88
2022/05/29 07:23:46;;;;;;;2.13;1.30;;;16.20;99.90;;;;;;5136008;27;20895;-89
2022/05/29 07:26:12;;;;;;;0.70;0.70;;;16.20;99.90;;;;;;5117180;28;20471;-89
2022/05/29 07:28:38;;;;;;;1.17;0.90;;;16.20;99.90;;;;;;5135784;27;20171;-88
2022/05/29 07:31:03;;;;;;;1.33;1.00;;;16.20;99.90;;;;;;5117980;28;20309;-87
2022/05/29 07:33:29;;;;;;;1.27;0.90;;;16.20;99.90;;;;;;5116916;28;20198;-89
2022/05/29 07:35:55;;;;;;;1.70;1.20;;;16.20;99.90;;;;;;5117595;28;20602;-88
2022/05/29 07:38:22;;;;;;;0.97;0.70;;;16.20;99.90;;;;;;5135182;28;20198;-90
2022/05/29 07:40:48;;;;;;;1.50;1.03;;;16.30;99.90;;;;;;5117593;28;20424;-90
2022/05/29 07:43:21;;;;;;;0.70;0.70;;;16.30;99.90;;;;;;5137636;28;20434;-89
2022/05/29 07:45:52;;;;;;;1.63;0.87;;;16.30;99.90;;;;;;5138624;28;20421;-89
2022/05/29 07:48:20;;;;;;;1.37;0.80;;;16.30;99.90;;;;;;5137499;28;20419;-92
2022/05/29 07:50:46;;;;;;;0.80;0.80;;;16.30;99.90;;;;;;5119804;28;20419;-92
2022/05/29 07:53:12;;;;;;;1.70;1.10;;;16.30;99.90;;;;;;5118901;28;20522;-93
2022/05/29 07:55:38;;;;;;;3.10;1.03;;;16.30;99.90;;;;;;5122829;28;20443;-93
2022/05/29 07:58:06;;;;;;;1.27;0.70;;;16.40;99.90;;;;;;5149906;28;20426;-92
2022/05/29 08:00:33;;;;;;;2.20;0.87;;;16.40;99.90;;;;;;5130155;27;20422;-94
2022/05/29 08:02:58;;;;;;;1.77;0.70;;;16.40;99.90;;;;;;5120646;28;20456;-93
2022/05/29 08:05:24;;;;;;;0.77;0.70;;;16.30;99.90;;;;;;5140483;28;20938;-91
2022/05/29 08:07:51;;;;;;;1.07;0.93;;;16.30;99.90;;;;;;5119572;28;20205;-93
2022/05/29 08:10:19;;;;;;;0.80;0.73;;;16.40;99.90;;;;;;5124105;27;20415;-91
2022/05/29 08:12:45;;;;;;;1.17;1.07;;;16.40;99.90;;;;;;5145166;27;20974;-95
2022/05/29 08:15:12;;;;;;;0.70;0.70;;;16.40;99.90;;;;;;5125671;27;20418;-94
2022/05/29 08:17:38;;;;;;;0.87;0.87;;;16.40;99.90;;;;;;5150339;27;20467;-92
2022/05/29 08:20:05;;;;;;;1.53;1.00;;;16.40;99.90;;;;;;5125002;27;20793;-92
2022/05/29 08:22:31;;;;;;;0.93;0.83;;;16.40;99.90;;;;;;5124853;27;20530;-94
2022/05/29 08:30:41;;;;;;;0.90;0.80;;;16.50;99.90;;;;;;5140461;27;20459;-92
2022/05/29 08:33:20;;;;;;;1.93;1.30;;;16.60;99.90;;;;;;5139209;27;20467;-90
2022/05/29 08:35:52;;;;;;;0.77;0.73;;;16.60;99.90;;;;;;5122194;27;20442;-92
2022/05/29 08:38:18;;;;;;;2.47;1.00;;;16.70;99.90;;;;;;5123178;27;20435;-91
2022/05/29 08:40:49;;;;;;;0.97;0.70;;;16.70;99.90;;;;;;5124340;27;20772;-95
2022/05/29 08:43:24;;;;;;;0.90;0.80;;;16.90;99.90;;;;;;5123428;27;20433;-96
2022/05/29 08:45:51;;;;;;;1.77;1.30;;;16.90;99.90;;;;;;5121117;27;20438;-96
2022/05/29 08:48:26;;;;;;;1.10;0.70;;;17.00;99.90;;;;;;5120066;27;20528;-95
2022/05/29 08:50:57;;;;;;;1.17;0.77;;;17.00;99.90;;;;;;5120910;27;20430;-95
2022/05/29 08:54:05;;;;;;;0.90;0.80;;;17.10;99.90;;;;;;5120639;27;20427;-96
2022/05/29 08:56:38;;;;;;;1.07;0.97;;;17.20;99.90;;;;;;5065186;27;20784;-96
2022/05/29 08:59:08;;;;;;;3.27;1.03;;;17.20;99.90;;;;;;5120880;27;20422;-96
2022/05/29 09:02:21;;;;;;;3.77;2.07;;;17.30;99.90;;;;;;5120607;27;20439;-95
2022/05/29 09:04:53;;;;;;;8.43;4.40;;;17.20;99.90;;;;;;5083682;27;20442;-91
2022/05/29 09:07:22;;;;;;;8.47;5.20;;;17.20;99.90;;;;;;5122452;27;20451;-96
2022/05/29 09:10:00;;;;;;;8.93;3.40;;;17.20;99.90;;;;;;5141117;27;20403;-96
2022/05/29 09:12:41;;;;;;;4.07;2.50;;;17.20;99.90;;;;;;5121332;27;20548;-96
2022/05/29 09:15:41;;;;;;;4.70;2.40;;;17.20;99.90;;;;;;5122998;27;20616;-96
2022/05/29 09:18:15;;;;;;;4.03;2.67;;;17.20;99.90;;;;;;5106877;28;20506;-91
2022/05/29 09:20:49;;;;;;;1.60;0.97;;;17.30;99.90;;;;;;5099683;28;20459;-91
2022/05/29 09:23:20;;;;;;;0.90;0.90;;;17.40;99.90;;;;;;5119019;28;20825;-90
2022/05/29 09:25:46;;;;;;;1.23;0.63;;;17.40;99.90;;;;;;5127009;28;20947;-91
2022/05/29 09:28:18;;;;;;;0.90;0.80;;;17.50;99.90;;;;;;5085318;28;20428;-96
2022/05/29 09:30:44;;;;;;;0.77;0.70;;;17.60;99.90;;;;;;5121577;28;20424;-90
2022/05/29 09:33:28;;;;;;;0.80;0.80;;;17.60;99.90;;;;;;5073613;28;20539;-91
2022/05/29 09:36:19;;;;;;;2.80;0.90;;;17.60;99.90;;;;;;5106651;28;20431;-96
2022/05/29 09:39:06;;;;;;;0.80;0.63;;;17.70;99.90;;;;;;5033935;28;20400;-96
2022/05/29 09:42:14;;;;;;;1.00;0.90;;;17.80;99.90;;;;;;5037490;28;20897;-96
2022/05/29 09:45:14;;;;;;;0.80;0.80;;;17.90;99.90;;;;;;5079768;28;20428;-91
2022/05/29 09:50:42;;;;;;;2.53;1.07;;;17.90;99.90;;;;;;5038964;28;20409;-91
2022/05/29 09:53:32;;;;;;;0.70;0.70;;;17.90;99.90;;;;;;5106224;28;20506;-96
2022/05/29 09:56:06;;;;;;;1.17;1.07;;;17.90;99.90;;;;;;5102761;28;20405;-96
2022/05/29 09:58:57;;;;;;;4.50;2.20;;;17.80;99.90;;;;;;5035767;28;20423;-95
2022/05/29 10:01:34;;;;;;;3.77;2.03;;;17.80;99.90;;;;;;5056698;28;20531;-94
2022/05/29 10:04:02;;;;;;;1.77;1.40;;;17.90;99.90;;;;;;5103753;28;20408;-94
2022/05/29 10:06:37;;;;;;;1.70;1.00;;;17.90;99.90;;;;;;5088258;28;20941;-94
2022/05/29 10:09:18;;;;;;;2.60;1.10;;;18.00;99.90;;;;;;5107174;28;20469;-93
2022/05/29 10:11:50;;;;;;;1.90;1.13;;;18.10;99.90;;;;;;5100445;28;20511;-92
2022/05/29 10:14:24;;;;;;;1.00;0.90;;;18.20;99.90;;;;;;5117163;28;20740;-93
2022/05/29 10:16:51;;;;;;;0.90;0.70;;;18.20;99.90;;;;;;5114037;28;20480;-93
2022/05/29 10:19:41;;;;;;;0.73;0.73;;;18.20;99.90;;;;;;5081253;28;20966;-93
2022/05/29 10:22:21;;;;;;;1.30;0.83;;;18.30;99.90;;;;;;5097939;28;20466;-93
2022/05/29 10:24:47;;;;;;;4.00;1.17;;;18.30;99.90;;;;;;5099351;28;20403;-92
2022/05/29 10:27:34;;;;;;;1.17;0.57;;;18.30;99.90;;;;;;5034712;28;20492;-93
2022/05/29 10:30:04;;;;;;;1.07;0.97;;;18.30;99.90;;;;;;5036033;28;20555;-92
2022/05/29 10:32:33;;;;;;;1.63;1.00;;;18.30;99.90;;;;;;5089825;28;20471;-93
2022/05/29 10:35:18;;;;;;;1.03;0.80;;;18.40;99.90;;;;;;5108644;28;20949;-94
2022/05/29 10:37:45;;;;;;;1.40;1.03;;;18.40;99.90;;;;;;5098619;28;20918;-93
2022/05/29 10:40:22;;;;;;;2.13;1.40;;;18.40;99.90;;;;;;5117560;28;20477;-93
2022/05/29 10:42:51;;;;;;;2.10;1.27;;;18.50;99.90;;;;;;5047225;28;20435;-93
2022/05/29 10:45:26;;;;;;;1.13;1.03;;;18.60;99.90;;;;;;5079035;28;20511;-94
2022/05/29 10:48:04;;;;;;;0.87;0.87;;;18.60;99.90;;;;;;5112041;28;20792;-93
2022/05/29 10:50:39;;;;;;;0.77;0.77;;;18.60;99.90;;;;;;5036737;28;20419;-92
2022/05/29 10:53:38;;;;;;;4.17;1.20;;;18.60;99.90;;;;;;5036731;28;20479;-93
2022/05/29 10:56:30;;;;;;;4.30;1.70;;;18.70;99.90;;;;;;5103240;28;20439;-94
2022/05/29 10:59:10;;;;;;;3.03;1.30;;;18.70;99.90;;;;;;5113580;28;20428;-93
2022/05/29 11:05:13;;;;;;;5.10;1.80;;;18.80;99.90;;;;;;5046389;28;20435;-93
2022/05/29 11:07:48;;;;;;;0.90;0.90;;;19.00;99.90;;;;;;5032432;28;20433;-94
2022/05/29 11:10:35;;;;;;;3.07;1.17;;;19.00;99.90;;;;;;5032468;28;20412;-94
2022/05/29 11:13:37;;;;;;;1.10;1.00;;;19.10;99.90;;;;;;5099493;28;20558;-94
2022/05/29 11:16:21;;;;;;;1.17;0.73;;;19.20;99.90;;;;;;5099174;28;20408;-93
2022/05/29 11:19:21;;;;;;;1.83;1.27;;;19.20;99.90;;;;;;5102480;28;20521;-92
2022/05/29 11:22:11;;;;;;;1.33;0.80;;;19.20;99.90;;;;;;5118110;27;20445;-93
2022/05/29 11:25:04;;;;;;;2.53;1.13;;;19.20;99.90;;;;;;5118749;28;20432;-94
2022/05/29 11:28:07;;;;;;;1.10;1.00;;;19.20;99.90;;;;;;5118507;28;20435;-92
2022/05/29 11:30:41;;;;;;;0.80;0.80;;;19.30;99.90;;;;;;5057732;28;20520;-94
2022/05/29 11:33:34;;;;;;;0.80;0.67;;;19.30;99.90;;;;;;5110413;28;20906;-93
2022/05/29 11:36:20;;;;;;;2.00;0.97;;;19.30;99.90;;;;;;5136139;28;20438;-93
2022/05/29 11:38:52;;;;;;;2.23;0.90;;;19.40;99.90;;;;;;5119691;28;20431;-92
2022/05/29 11:41:26;;;;;;;0.83;0.80;;;19.40;99.90;;;;;;5119678;28;20412;-92
2022/05/29 11:43:56;;;;;;;1.00;0.90;;;19.40;99.90;;;;;;5137670;28;20444;-92
2022/05/29 11:52:46;;;;;;;0.60;0.60;;;19.40;99.90;;;;;;5142933;27;20473;-93
2022/05/29 11:55:18;;;;;;;0.83;0.83;;;19.40;99.90;;;;;;5124672;27;20939;-94
2022/05/29 11:57:55;;;;;;;1.30;0.83;;;19.40;99.90;;;;;;5123453;27;20476;-93
2022/05/29 12:00:36;;;;;;;0.87;0.87;;;19.40;99.90;;;;;;5123672;27;20925;-93
2022/05/29 12:03:22;;;;;;;1.30;1.00;;;19.40;99.90;;;;;;5124046;27;20439;-93
2022/05/29 12:05:54;;;;;;;0.93;0.87;;;19.40;99.90;;;;;;5124530;27;20408;-93
2022/05/29 12:08:33;;;;;;;1.13;0.73;;;19.40;99.90;;;;;;5124250;27;20439;-92
2022/05/29 12:11:30;;;;;;;1.30;1.03;;;19.30;99.90;;;;;;5149964;27;20410;-93
2022/05/29 12:13:56;;;;;;;2.87;1.20;;;19.30;99.90;;;;;;5136523;27;20433;-92
2022/05/29 12:16:28;;;;;;;2.00;1.23;;;19.30;99.90;;;;;;5129900;27;20493;-93
2022/05/29 12:18:57;;;;;;;1.00;0.90;;;19.40;99.90;;;;;;5122953;27;20197;-92
2022/05/29 12:21:46;;;;;;;1.17;0.93;;;19.30;99.90;;;;;;5122868;27;20409;-93
2022/05/29 12:24:17;;;;;;;0.97;0.80;;;19.40;99.90;;;;;;5121863;27;20488;-93
2022/05/29 12:27:08;;;;;;;1.20;1.00;;;19.40;99.90;;;;;;5139326;27;20424;-92
2022/05/29 12:29:47;;;;;;;0.70;0.63;;;19.40;99.90;;;;;;5121589;27;20463;-92
2022/05/29 12:32:22;;;;;;;1.73;0.80;;;19.50;99.90;;;;;;5121921;27;20478;-93
2022/05/29 12:35:05;;;;;;;2.10;0.97;;;19.40;99.90;;;;;;5122994;27;20423;-93
2022/05/29 12:37:38;;;;;;;1.10;1.00;;;19.50;99.90;;;;;;5121192;27;20440;-94
2022/05/29 12:40:42;;;;;;;1.20;0.90;;;19.50;99.90;;;;;;5139986;27;20423;-94
2022/05/29 12:43:23;;;;;;;1.60;0.80;;;19.60;99.90;;;;;;5121205;27;20511;-96
2022/05/29 12:46:09;;;;;;;1.33;1.00;;;19.60;99.90;;;;;;5140887;27;20403;-92
2022/05/29 12:48:41;;;;;;;1.10;1.00;;;19.60;99.90;;;;;;5122466;27;20974;-92
2022/05/29 12:51:33;;;;;;;0.83;0.83;;;19.70;99.90;;;;;;5122422;27;20460;-92
2022/05/29 12:54:37;;;;;;;0.87;0.87;;;19.70;99.90;;;;;;5139632;27;20888;-96
2022/05/29 12:57:52;;;;;;;1.37;0.67;;;19.70;99.90;;;;;;5139402;27;20443;-96
2022/05/29 13:00:24;;;;;;;1.27;1.17;;;19.70;99.90;;;;;;5128770;27;20503;-91
2022/05/29 13:03:17;;;;;;;1.17;0.87;;;19.70;99.90;;;;;;5141666;27;20536;-91
2022/05/29 13:06:06;;;;;;;0.60;0.60;;;19.70;99.90;;;;;;5100432;28;20433;-96
2022/05/29 13:09:10;;;;;;;0.60;0.60;;;19.70;99.90;;;;;;5100085;28;20535;-95
2022/05/29 13:11:41;;;;;;;0.80;0.60;;;19.70;99.90;;;;;;5065855;28;20825;-91
2022/05/29 13:14:08;;;;;;;0.70;0.60;;;19.70;99.90;;;;;;5099867;28;20428;-96
2022/05/29 13:16:40;;;;;;;1.43;0.80;;;19.70;99.90;;;;;;5031149;28;20507;-91
2022/05/29 13:19:17;;;;;;;1.13;0.77;;;19.60;99.90;;;;;;5100360;28;20433;-96
2022/05/29 13:22:07;;;;;;;0.80;0.80;;;19.60;99.90;;;;;;5102032;28;21014;-91
2022/05/29 13:24:40;;;;;;;0.70;0.70;;;19.50;99.90;;;;;;5101397;28;20443;-91
2022/05/29 13:27:09;;;;;;;1.50;1.10;;;19.50;99.90;;;;;;5102418;28;20530;-96
2022/05/29 13:29:47;;;;;;;0.67;0.60;;;19.40;99.90;;;;;;5102105;28;20423;-90
2022/05/29 13:32:12;;;;;;;1.07;0.70;;;19.40;99.90;;;;;;5101903;28;20487;-95
2022/05/29 13:34:39;;;;;;;1.20;0.90;;;19.40;99.90;;;;;;5033257;28;20400;-94
2022/05/29 13:37:38;;;;;;;0.83;0.80;;;19.40;99.90;;;;;;5034853;28;20207;-96
2022/05/29 13:40:30;;;;;;;0.70;0.70;;;19.30;99.90;;;;;;5103864;28;20463;-96
2022/05/29 13:43:18;;;;;;;0.90;0.80;;;19.30;99.90;;;;;;5105268;28;20455;-95
2022/05/29 13:45:45;;;;;;;0.87;0.83;;;19.30;99.90;;;;;;5095960;28;20420;-96
2022/05/29 13:48:24;;;;;;;0.70;0.70;;;19.30;99.90;;;;;;5104349;28;20503;-96
2022/05/29 13:51:03;;;;;;;0.70;0.70;;;19.30;99.90;;;;;;5104305;28;20443;-96
2022/05/29 13:53:41;;;;;;;0.97;0.97;;;19.20;99.90;;;;;;5103337;28;21051;-94
2022/05/29 13:56:13;;;;;;;0.90;0.80;;;19.20;99.90;;;;;;5036248;28;20417;-96
2022/05/29 14:04:23;;;;;;;1.20;0.70;;;19.10;99.90;;;;;;5034820;28;20392;-96